Time;durP1;ratioP1;P1;durP2;ratioP2;P2;SDS_P1;SDS_P2;PMS_P1;PMS_P2;Temp;Humidity;BMP_temperature;BMP_pressure;BME280_temperature;BME280_humidity;BME280_pressure;Samples;Min_cycle;Max_cycle;Signal;HPM_P1;HPM_P2
2022/12/19 00:01:17;;;;;;;36.03;19.63;;;2.70;99.90;;;;;;5096922;28;20055;-82
2022/12/19 00:03:54;;;;;;;33.75;19.60;;;1.10;99.90;;;;;;5080227;28;20087;-83
2022/12/19 00:06:21;;;;;;;33.90;20.30;;;1.20;99.90;;;;;;5114903;28;20050;-83
2022/12/19 00:08:48;;;;;;;32.88;18.17;;;1.90;99.90;;;;;;5097294;28;20516;-83
2022/12/19 00:11:15;;;;;;;37.17;20.63;;;1.90;99.90;;;;;;5096754;28;20491;-83
2022/12/19 00:13:41;;;;;;;36.75;20.42;;;1.30;99.90;;;;;;5100428;27;20050;-83
2022/12/19 00:16:16;;;;;;;33.88;19.33;;;3.00;99.90;;;;;;5100961;28;20051;-82
2022/12/19 00:18:44;;;;;;;31.45;17.67;;;1.30;99.90;;;;;;5099554;28;20482;-83
2022/12/19 00:21:11;;;;;;;34.47;19.92;;;2.70;99.90;;;;;;5096551;27;20076;-83
2022/12/19 00:23:37;;;;;;;35.47;20.05;;;1.20;99.90;;;;;;5134488;27;20051;-82
2022/12/19 00:26:14;;;;;;;37.75;22.63;;;3.20;99.90;;;;;;5133781;27;20057;-82
2022/12/19 00:28:41;;;;;;;36.08;19.13;;;1.30;99.90;;;;;;5115120;27;20142;-83
2022/12/19 00:31:07;;;;;;;38.15;20.33;;;3.10;99.90;;;;;;5114617;27;20472;-82
2022/12/19 00:33:33;;;;;;;35.80;20.17;;;1.40;99.90;;;;;;5109652;28;20075;-83
2022/12/19 00:36:05;;;;;;;32.60;17.85;;;1.80;99.90;;;;;;5093565;28;20044;-83
2022/12/19 00:38:32;;;;;;;32.38;18.98;;;1.50;99.90;;;;;;5107724;27;20142;-83
2022/12/19 00:41:16;;;;;;;31.80;17.65;;;2.70;99.90;;;;;;5107353;27;20050;-82
2022/12/19 00:43:42;;;;;;;35.60;19.35;;;1.50;99.90;;;;;;5074711;28;20057;-82
2022/12/19 00:46:12;;;;;;;34.28;18.98;;;1.50;99.90;;;;;;5101478;28;20063;-82
2022/12/19 00:48:38;;;;;;;36.28;20.60;;;2.70;99.90;;;;;;5111160;28;20077;-82
2022/12/19 00:51:07;;;;;;;36.50;21.23;;;1.50;99.90;;;;;;5113472;28;20139;-82
2022/12/19 00:53:33;;;;;;;36.05;18.05;;;1.60;99.90;;;;;;5113034;28;20105;-83
2022/12/19 00:56:04;;;;;;;35.25;20.33;;;3.30;99.90;;;;;;5111594;28;20043;-82
2022/12/19 00:58:30;;;;;;;36.80;20.73;;;1.60;99.90;;;;;;5105123;28;20051;-83
2022/12/19 01:00:56;;;;;;;35.55;19.67;;;1.50;99.90;;;;;;5095066;28;20092;-83
2022/12/19 01:03:23;;;;;;;33.70;17.55;;;3.00;99.90;;;;;;5114199;28;20549;-82
2022/12/19 01:05:52;;;;;;;39.58;21.90;;;1.60;99.90;;;;;;5078907;28;20139;-83
2022/12/19 01:08:17;;;;;;;38.78;20.10;;;1.60;99.90;;;;;;5113096;28;20047;-82
2022/12/19 01:10:48;;;;;;;36.10;19.80;;;2.10;99.90;;;;;;5111676;28;20424;-82
2022/12/19 01:13:16;;;;;;;34.40;18.95;;;1.60;99.90;;;;;;5096779;28;20055;-82
2022/12/19 01:15:42;;;;;;;36.78;18.50;;;3.00;99.90;;;;;;5107376;27;20555;-82
2022/12/19 01:18:09;;;;;;;32.72;18.52;;;2.90;99.90;;;;;;5121616;27;20039;-83
2022/12/19 01:20:39;;;;;;;33.70;18.40;;;1.60;99.90;;;;;;5114809;27;20129;-83
2022/12/19 01:23:06;;;;;;;34.28;19.85;;;3.20;99.90;;;;;;5091766;28;20388;-82
2022/12/19 01:25:33;;;;;;;36.35;19.52;;;2.40;99.90;;;;;;5093511;28;20140;-82
2022/12/19 01:27:59;;;;;;;38.75;20.15;;;1.80;99.90;;;;;;5092280;28;20048;-82
2022/12/19 01:30:25;;;;;;;34.15;18.73;;;3.50;99.90;;;;;;5096050;28;20407;-83
2022/12/19 01:32:51;;;;;;;32.70;18.75;;;3.30;99.90;;;;;;5113982;27;20237;-82
2022/12/19 01:35:17;;;;;;;32.63;18.63;;;2.20;99.90;;;;;;5096011;27;20568;-82
2022/12/19 01:37:42;;;;;;;31.42;17.45;;;3.50;99.90;;;;;;5114130;27;20055;-82
2022/12/19 01:40:11;;;;;;;38.72;20.10;;;1.90;99.90;;;;;;5112221;28;20071;-82
2022/12/19 01:42:37;;;;;;;28.55;15.95;;;2.00;99.90;;;;;;5100166;28;20051;-82
2022/12/19 01:45:08;;;;;;;33.45;17.20;;;2.30;99.90;;;;;;5110045;28;20059;-82
2022/12/19 01:47:55;;;;;;;33.70;19.33;;;2.00;99.90;;;;;;5094401;28;20048;-82
2022/12/19 01:50:42;;;;;;;28.42;16.15;;;2.00;99.90;;;;;;5094815;28;20070;-82
2022/12/19 01:53:09;;;;;;;36.47;20.00;;;2.10;99.90;;;;;;5111385;28;20047;-82
2022/12/19 01:55:37;;;;;;;34.20;18.85;;;2.10;99.90;;;;;;5109014;28;20043;-82
2022/12/19 01:58:03;;;;;;;32.65;18.60;;;3.40;99.90;;;;;;5110867;28;20140;-83
2022/12/19 02:00:29;;;;;;;34.42;20.20;;;2.20;99.90;;;;;;5112363;28;20090;-81
2022/12/19 02:03:17;;;;;;;34.05;18.83;;;3.50;99.90;;;;;;5113195;28;20125;-83
2022/12/19 02:05:43;;;;;;;31.10;17.00;;;2.20;99.90;;;;;;5113050;28;20420;-82
2022/12/19 02:08:10;;;;;;;36.08;19.75;;;3.10;99.90;;;;;;5111625;28;20389;-82
2022/12/19 02:10:35;;;;;;;37.45;19.95;;;2.30;99.90;;;;;;5111837;28;20074;-83
2022/12/19 02:13:01;;;;;;;34.28;19.02;;;2.20;99.90;;;;;;5094660;28;20507;-83
2022/12/19 02:15:34;;;;;;;39.15;19.65;;;2.30;99.90;;;;;;5111691;28;20089;-82
2022/12/19 02:18:29;;;;;;;38.00;21.00;;;2.30;99.90;;;;;;5112620;28;20173;-82
2022/12/19 02:21:13;;;;;;;29.65;16.25;;;2.30;99.90;;;;;;5072815;28;20044;-82
2022/12/19 02:24:07;;;;;;;40.78;20.90;;;2.10;99.90;;;;;;5112682;28;20047;-83
2022/12/19 02:27:03;;;;;;;43.17;23.13;;;2.10;99.90;;;;;;5112765;28;20138;-82
2022/12/19 02:29:35;;;;;;;41.58;22.40;;;2.00;99.90;;;;;;5113578;28;20043;-82
2022/12/19 02:32:09;;;;;;;42.80;21.77;;;2.00;99.90;;;;;;5114319;28;20054;-82
2022/12/19 02:34:50;;;;;;;41.85;22.42;;;2.00;99.90;;;;;;5110331;28;20055;-82
2022/12/19 02:37:55;;;;;;;40.75;21.58;;;2.00;99.90;;;;;;5118354;28;20087;-82
2022/12/19 02:40:30;;;;;;;44.42;23.83;;;1.90;99.90;;;;;;5087291;28;20153;-83
2022/12/19 02:43:01;;;;;;;45.08;24.60;;;3.40;99.90;;;;;;5113005;28;20055;-83
2022/12/19 02:45:32;;;;;;;44.70;23.83;;;1.90;99.90;;;;;;5112982;28;21207;-82
2022/12/19 02:48:00;;;;;;;43.25;24.48;;;1.90;99.90;;;;;;5111668;28;20070;-83
2022/12/19 02:50:33;;;;;;;43.35;24.02;;;2.00;99.90;;;;;;5110387;28;20055;-82
2022/12/19 02:52:59;;;;;;;40.40;22.15;;;3.40;99.90;;;;;;5091202;28;20109;-83
2022/12/19 02:55:25;;;;;;;50.53;24.02;;;3.50;99.90;;;;;;5099443;28;20074;-83
2022/12/19 02:58:12;;;;;;;48.70;25.63;;;2.80;99.90;;;;;;5109067;28;20043;-83
2022/12/19 03:01:04;;;;;;;46.38;24.38;;;2.10;99.90;;;;;;5117572;27;20054;-83
2022/12/19 03:04:04;;;;;;;48.38;25.52;;;3.50;99.90;;;;;;5095678;28;20052;-82
2022/12/19 03:06:53;;;;;;;46.47;24.15;;;2.10;99.90;;;;;;5081179;27;20150;-83
2022/12/19 03:09:22;;;;;;;43.08;23.48;;;2.10;99.90;;;;;;5105968;27;20090;-82
2022/12/19 03:11:57;;;;;;;49.22;24.75;;;2.20;99.90;;;;;;5120627;27;20117;-83
2022/12/19 03:14:23;;;;;;;53.17;26.33;;;2.20;99.90;;;;;;5097788;28;20524;-82
2022/12/19 03:16:49;;;;;;;49.85;25.25;;;2.20;99.90;;;;;;5116255;27;20233;-83
2022/12/19 03:19:15;;;;;;;47.28;25.25;;;3.70;99.90;;;;;;5118104;27;20180;-82
2022/12/19 03:21:49;;;;;;;46.13;25.60;;;3.40;99.90;;;;;;5116316;27;20476;-83
2022/12/19 03:24:16;;;;;;;49.67;26.63;;;2.20;99.90;;;;;;5087572;28;20052;-82
2022/12/19 03:26:45;;;;;;;44.45;24.13;;;3.70;99.90;;;;;;5110449;27;20048;-82
2022/12/19 03:29:23;;;;;;;48.33;25.17;;;2.30;99.90;;;;;;5116208;28;20341;-82
2022/12/19 03:31:50;;;;;;;46.63;23.77;;;2.20;99.90;;;;;;5084552;28;20446;-83
2022/12/19 03:34:25;;;;;;;52.92;27.20;;;3.00;99.90;;;;;;5106033;27;20181;-82
2022/12/19 03:36:56;;;;;;;45.95;24.95;;;3.80;99.90;;;;;;5107755;28;20158;-83
2022/12/19 03:39:24;;;;;;;46.75;25.67;;;2.30;99.90;;;;;;5112426;28;20063;-83
2022/12/19 03:44:40;;;;;;;53.13;26.57;;;3.50;99.90;;;;;;5115647;28;20117;-83
2022/12/19 03:47:14;;;;;;;51.67;25.83;;;2.70;99.90;;;;;;5115536;28;20286;-83
2022/12/19 03:49:40;;;;;;;46.60;23.30;;;3.30;99.90;;;;;;5097451;28;20391;-82
2022/12/19 03:52:17;;;;;;;56.83;26.42;;;3.30;99.90;;;;;;5097582;28;20055;-83
2022/12/19 03:54:50;;;;;;;49.33;26.23;;;2.40;99.90;;;;;;5104199;28;20043;-83
2022/12/19 03:57:27;;;;;;;52.22;24.33;;;2.40;99.90;;;;;;5115552;28;20048;-82
2022/12/19 04:00:05;;;;;;;54.75;28.73;;;2.70;99.90;;;;;;5096941;28;20116;-83
2022/12/19 04:02:33;;;;;;;52.55;25.40;;;2.40;99.90;;;;;;5114196;28;20051;-82
2022/12/19 04:05:07;;;;;;;58.00;28.98;;;2.40;99.90;;;;;;5097167;28;20130;-82
2022/12/19 04:07:35;;;;;;;63.13;30.20;;;3.80;99.90;;;;;;5113317;28;20130;-82
2022/12/19 04:10:06;;;;;;;56.33;28.58;;;3.40;99.90;;;;;;5111326;28;20081;-82
2022/12/19 04:12:38;;;;;;;55.95;25.55;;;2.50;99.90;;;;;;5096957;28;20063;-83
2022/12/19 04:15:05;;;;;;;60.15;28.52;;;4.20;99.90;;;;;;5115664;27;20055;-83
2022/12/19 04:17:51;;;;;;;62.90;30.55;;;2.50;99.90;;;;;;5109746;28;20468;-83
2022/12/19 04:20:23;;;;;;;65.03;31.13;;;2.50;99.90;;;;;;5115085;27;20047;-83
2022/12/19 04:23:02;;;;;;;62.30;31.90;;;3.40;99.90;;;;;;5097506;28;20047;-83
2022/12/19 04:25:46;;;;;;;54.83;26.15;;;2.60;99.90;;;;;;5112011;27;20118;-83
2022/12/19 04:28:17;;;;;;;63.08;30.20;;;2.70;99.90;;;;;;5119745;27;20113;-83
2022/12/19 04:30:44;;;;;;;60.45;30.73;;;3.10;99.90;;;;;;5097255;27;20159;-83
2022/12/19 04:33:10;;;;;;;63.03;31.23;;;2.70;99.90;;;;;;5096252;28;20047;-83
2022/12/19 04:35:36;;;;;;;55.75;26.35;;;3.30;99.90;;;;;;5127747;27;20440;-83
2022/12/19 04:38:03;;;;;;;61.38;30.98;;;4.00;99.90;;;;;;5118237;27;20052;-83
2022/12/19 04:40:29;;;;;;;58.78;27.40;;;;;;;;;;5097536;27;20133;-83
2022/12/19 04:42:54;;;;;;;59.78;30.92;;;3.30;99.90;;;;;;5132517;27;20360;-82
2022/12/19 04:45:20;;;;;;;56.55;29.77;;;2.80;99.90;;;;;;5133217;27;20123;-83
2022/12/19 04:47:46;;;;;;;58.85;30.80;;;2.90;99.90;;;;;;5116322;27;20052;-83
2022/12/19 04:50:12;;;;;;;57.67;29.50;;;2.90;99.90;;;;;;5134658;27;20517;-83
2022/12/19 04:52:38;;;;;;;54.15;27.75;;;2.90;99.90;;;;;;5104048;28;20476;-83
2022/12/19 04:55:04;;;;;;;62.05;30.42;;;2.90;99.90;;;;;;5101407;28;20086;-83
2022/12/19 04:57:30;;;;;;;57.05;28.52;;;2.90;99.90;;;;;;5114685;27;20093;-83
2022/12/19 04:59:56;;;;;;;62.30;32.08;;;2.90;99.90;;;;;;5134775;27;20051;-83
2022/12/19 05:02:23;;;;;;;67.45;33.20;;;4.20;99.90;;;;;;5132997;27;20407;-82
2022/12/19 05:04:49;;;;;;;59.80;30.17;;;2.90;99.90;;;;;;5116204;27;20401;-83
2022/12/19 05:07:18;;;;;;;60.22;31.27;;;;;;;;;;5113345;27;20399;-82
2022/12/19 05:09:44;;;;;;;62.40;29.63;;;;;;;;;;5132855;27;20093;-83
2022/12/19 05:12:10;;;;;;;66.70;32.70;;;;;;;;;;5114545;27;20058;-82
2022/12/19 05:14:36;;;;;;;66.63;32.63;;;;;;;;;;5114048;27;20559;-82
2022/12/19 05:17:02;;;;;;;61.53;29.63;;;;;;;;;;5112273;27;20130;-82
2022/12/19 05:19:29;;;;;;;56.58;28.20;;;;;;;;;;5097222;27;20176;-82
2022/12/19 05:21:55;;;;;;;59.15;27.58;;;;;;;;;;5113208;27;20047;-82
2022/12/19 05:24:21;;;;;;;62.08;31.52;;;;;;;;;;5115570;27;20383;-82
2022/12/19 05:26:48;;;;;;;60.83;28.45;;;;;;;;;;5103017;28;20051;-82
2022/12/19 05:29:14;;;;;;;60.65;33.10;;;;;;;;;;5095172;28;20063;-82
2022/12/19 05:31:41;;;;;;;61.88;29.42;;;;;;;;;;5113758;28;20135;-82
2022/12/19 05:34:07;;;;;;;65.40;34.08;;;;;;;;;;5110914;27;20067;-83
2022/12/19 05:36:33;;;;;;;65.70;33.78;;;;;;;;;;5123826;27;20051;-82
2022/12/19 05:38:59;;;;;;;57.78;29.60;;;;;;;;;;5108964;28;20094;-82
2022/12/19 05:41:25;;;;;;;62.78;30.73;;;;;;;;;;5112955;27;20047;-83
2022/12/19 05:43:53;;;;;;;62.78;32.45;;;;;;;;;;5122392;27;20453;-82
2022/12/19 05:46:20;;;;;;;50.60;27.20;;;;;;;;;;5093882;28;20051;-82
2022/12/19 05:48:46;;;;;;;59.08;29.35;;;;;;;;;;5111436;28;20483;-82
2022/12/19 05:51:12;;;;;;;66.78;33.75;;;;;;;;;;5113303;28;20059;-82
2022/12/19 05:53:39;;;;;;;60.08;30.15;;;;;;;;;;5113169;28;20389;-82
2022/12/19 05:56:09;;;;;;;64.38;32.05;;;;;;;;;;5111650;28;20412;-82
2022/12/19 05:58:36;;;;;;;60.30;30.45;;;;;;;;;;5111679;28;20395;-82
2022/12/19 06:01:06;;;;;;;56.25;27.27;;;;;;;;;;5104537;28;20059;-82
2022/12/19 06:03:32;;;;;;;57.65;28.83;;;;;;;;;;5092424;28;20415;-82
2022/12/19 06:06:02;;;;;;;53.75;26.27;;;;;;;;;;5074484;28;20399;-82
2022/12/19 06:08:28;;;;;;;55.35;27.95;;;;;;;;;;5074193;28;20060;-82
2022/12/19 06:10:54;;;;;;;53.88;26.95;;;;;;;;;;5057510;28;20135;-82
2022/12/19 06:13:20;;;;;;;43.10;21.73;;;;;;;;;;5092437;28;20055;-82
2022/12/19 06:15:47;;;;;;;50.97;25.23;;;;;;;;;;5100576;27;20047;-82
2022/12/19 06:18:13;;;;;;;44.78;23.20;;;;;;;;;;5103281;28;20058;-84
2022/12/19 06:20:39;;;;;;;36.88;20.08;;;;;;;;;;5092851;28;20048;-86
2022/12/19 06:23:05;;;;;;;48.38;25.90;;;;;;;;;;5074665;28;20062;-85
2022/12/19 06:25:31;;;;;;;46.40;25.85;;;;;;;;;;5057756;28;20135;-85
2022/12/19 06:27:58;;;;;;;47.03;23.50;;;;;;;;;;5074337;28;20066;-85
2022/12/19 06:30:24;;;;;;;48.50;25.75;;;;;;;;;;5094310;28;20055;-85
2022/12/19 06:32:50;;;;;;;47.22;25.23;;;;;;;;;;5096626;28;20043;-85
2022/12/19 06:35:16;;;;;;;46.60;24.40;;;;;;;;;;5100553;27;20040;-84
2022/12/19 06:37:42;;;;;;;47.22;26.15;;;;;;;;;;5116694;28;20044;-85
2022/12/19 06:42:21;;;;;;;50.15;27.33;;;;;;;;;;5099546;28;20059;-85
2022/12/19 06:42:54;;;;;;;;;;;;;;;;;;5114000;27;20111;-86
2022/12/19 06:45:20;;;;;;;42.58;21.80;;;;;;;;;;5118744;27;20010;-84
2022/12/19 06:47:49;;;;;;;45.47;23.50;;;;;;;;;;5135802;27;20127;-85
2022/12/19 06:50:15;;;;;;;39.35;20.40;;;;;;;;;;5137280;27;20043;-84
2022/12/19 06:52:41;;;;;;;35.88;20.42;;;;;;;;;;5118374;27;20133;-85
2022/12/19 06:55:07;;;;;;;42.63;21.27;;;;;;;;;;5133722;27;20491;-85
2022/12/19 06:57:33;;;;;;;38.75;21.65;;;;;;;;;;5117797;27;20062;-85
2022/12/19 06:59:59;;;;;;;39.75;21.27;;;;;;;;;;5119057;27;20514;-86
2022/12/19 07:02:30;;;;;;;34.33;19.38;;;;;;;;;;5096568;28;20059;-85
2022/12/19 07:04:59;;;;;;;36.63;19.50;;;;;;;;;;5061699;28;20059;-85
2022/12/19 07:07:25;;;;;;;37.35;19.80;;;;;;;;;;5059848;28;20044;-85
2022/12/19 07:09:51;;;;;;;32.63;18.17;;;;;;;;;;5093281;28;20458;-85
2022/12/19 07:12:18;;;;;;;36.70;20.00;;;;;;;;;;5061681;28;20059;-86
2022/12/19 07:14:44;;;;;;;35.28;18.80;;;;;;;;;;5061146;28;20048;-86
2022/12/19 07:17:11;;;;;;;36.00;19.30;;;;;;;;;;5097754;28;20357;-85
2022/12/19 07:19:37;;;;;;;33.88;18.35;;;;;;;;;;5081347;28;20369;-86
2022/12/19 07:22:04;;;;;;;31.02;18.13;;;;;;;;;;5098497;28;20095;-85
2022/12/19 07:24:31;;;;;;;35.25;17.98;;;;;;;;;;5097102;27;20135;-86
2022/12/19 07:26:57;;;;;;;34.97;18.48;;;;;;;;;;5133855;27;20130;-84
2022/12/19 07:29:24;;;;;;;33.75;19.05;;;;;;;;;;5117970;27;20099;-84
2022/12/19 07:31:50;;;;;;;34.88;19.17;;;;;;;;;;5129666;27;20096;-83
2022/12/19 07:34:16;;;;;;;34.83;19.63;;;;;;;;;;5098339;28;20059;-84
2022/12/19 07:36:42;;;;;;;32.45;17.83;;;;;;;;;;5101213;28;20044;-83
2022/12/19 07:39:08;;;;;;;35.67;19.17;;;;;;;;;;5131125;27;20403;-87
2022/12/19 07:41:38;;;;;;;37.33;19.50;;;;;;;;;;5122098;27;20047;-87
2022/12/19 07:44:05;;;;;;;35.70;19.23;;;;;;;;;;5096772;28;20059;-85
2022/12/19 07:46:31;;;;;;;33.78;18.65;;;;;;;;;;5113444;28;20407;-86
2022/12/19 07:48:57;;;;;;;30.60;17.25;;;;;;;;;;5113741;28;20047;-86
2022/12/19 07:51:23;;;;;;;31.25;18.40;;;;;;;;;;5098746;28;20085;-86
2022/12/19 07:53:49;;;;;;;28.92;16.55;;;;;;;;;;5100374;27;20042;-87
2022/12/19 07:56:16;;;;;;;31.52;18.27;;;;;;;;;;5119702;27;20089;-85
2022/12/19 07:58:43;;;;;;;34.33;19.23;;;;;;;;;;5136055;27;20130;-85
2022/12/19 08:01:11;;;;;;;26.85;15.77;;;;;;;;;;5118398;27;20066;-85
2022/12/19 08:03:37;;;;;;;34.50;19.23;;;;;;;;;;5105354;28;20074;-86
2022/12/19 08:06:04;;;;;;;29.38;17.98;;;;;;;;;;5116145;27;20051;-86
2022/12/19 08:08:30;;;;;;;29.38;15.70;;;;;;;;;;5097792;28;20189;-85
2022/12/19 08:11:08;;;;;;;28.60;17.30;;;;;;;;;;5097076;28;20039;-85
2022/12/19 08:13:34;;;;;;;33.35;17.75;;;;;;;;;;5096175;28;20091;-86
2022/12/19 08:16:00;;;;;;;30.15;17.95;;;;;;;;;;5102405;27;20407;-87
2022/12/19 08:18:26;;;;;;;30.60;17.80;;;;;;;;;;5122244;27;20070;-86
2022/12/19 08:20:52;;;;;;;27.35;16.15;;;;;;;;;;5079674;28;20048;-86
2022/12/19 08:23:21;;;;;;;27.58;16.15;;;;;;;;;;5105265;27;20415;-86
2022/12/19 08:25:49;;;;;;;27.33;15.50;;;;;;;;;;5116685;27;20140;-86
2022/12/19 08:28:15;;;;;;;24.77;14.63;;;;;;;;;;5116870;27;20051;-86
2022/12/19 08:30:41;;;;;;;27.17;16.00;;;;;;;;;;5116441;27;20118;-86
2022/12/19 08:33:07;;;;;;;29.23;17.35;;;;;;;;;;5116731;27;20066;-85
2022/12/19 08:35:35;;;;;;;23.52;13.52;;;;;;;;;;5117102;27;20051;-86
2022/12/19 08:38:01;;;;;;;28.25;17.00;;;;;;;;;;5131546;27;20054;-85
2022/12/19 08:40:28;;;;;;;28.48;16.80;;;;;;;;;;5113131;27;20043;-83
2022/12/19 08:42:54;;;;;;;28.23;16.88;;;;;;;;;;5114959;27;20051;-84
2022/12/19 08:45:20;;;;;;;28.48;16.45;;;;;;;;;;5115820;27;20138;-83
2022/12/19 08:47:46;;;;;;;30.15;17.00;;;;;;;;;;5134812;27;20487;-83
2022/12/19 08:50:13;;;;;;;28.50;17.10;;;;;;;;;;5116414;27;20486;-84
2022/12/19 08:52:39;;;;;;;25.98;15.98;;;;;;;;;;5114974;27;20123;-83
2022/12/19 08:55:05;;;;;;;27.88;16.63;;;;;;;;;;5133609;27;20467;-83
2022/12/19 08:57:31;;;;;;;27.35;16.73;;;;;;;;;;5115872;27;20047;-84
2022/12/19 08:59:58;;;;;;;28.35;16.30;;;;;;;;;;5116184;27;20055;-83
2022/12/19 09:02:24;;;;;;;28.38;17.77;;;;;;;;;;5116160;27;20059;-84
2022/12/19 09:04:50;;;;;;;30.40;18.27;;;;;;;;;;5134481;27;20072;-84
2022/12/19 09:07:16;;;;;;;28.02;16.67;;;;;;;;;;5116191;27;20077;-84
2022/12/19 09:09:42;;;;;;;29.98;17.27;;;;;;;;;;5134100;27;20051;-83
2022/12/19 09:12:08;;;;;;;26.50;16.88;;;;;;;;;;5115969;27;20051;-83
2022/12/19 09:14:35;;;;;;;24.05;15.00;;;;;;;;;;5115343;27;20456;-84
2022/12/19 09:17:00;;;;;;;27.65;18.05;;;5.20;99.90;;;;;;5112826;27;20100;-84
2022/12/19 09:19:26;;;;;;;26.58;17.30;;;5.60;99.90;;;;;;5074871;28;20052;-84
2022/12/19 09:21:52;;;;;;;26.92;16.92;;;5.70;99.90;;;;;;5058343;28;20454;-84
2022/12/19 09:24:18;;;;;;;28.45;18.13;;;7.30;99.90;;;;;;5075051;28;20040;-84
2022/12/19 09:26:44;;;;;;;29.40;18.42;;;5.80;99.90;;;;;;5059551;28;20085;-84
2022/12/19 09:29:11;;;;;;;27.95;17.83;;;5.80;99.90;;;;;;5075983;28;20480;-85
2022/12/19 09:31:37;;;;;;;30.02;18.23;;;5.80;99.90;;;;;;5075691;28;20059;-84
2022/12/19 09:34:03;;;;;;;26.90;17.00;;;5.80;99.90;;;;;;5093181;28;20408;-84
2022/12/19 09:36:29;;;;;;;28.92;18.85;;;7.10;99.90;;;;;;5074540;28;20044;-85
2022/12/19 09:38:57;;;;;;;28.45;18.67;;;5.90;99.90;;;;;;5074809;28;20044;-85
2022/12/19 09:41:35;;;;;;;27.55;17.77;;;6.00;99.90;;;;;;5092651;28;20436;-84
2022/12/19 09:44:14;;;;;;;32.15;19.33;;;6.00;99.90;;;;;;5057958;28;20055;-84
2022/12/19 09:46:54;;;;;;;30.15;19.30;;;6.00;99.90;;;;;;5080184;27;20048;-84
2022/12/19 09:49:23;;;;;;;33.17;20.40;;;6.10;99.90;;;;;;5127735;27;20043;-84
2022/12/19 09:52:05;;;;;;;29.20;18.75;;;6.00;99.90;;;;;;5092406;28;20049;-84
2022/12/19 09:54:43;;;;;;;31.27;19.90;;;6.10;99.90;;;;;;5091904;28;20044;-86
2022/12/19 09:57:36;;;;;;;27.67;17.38;;;6.10;99.90;;;;;;5078114;28;20052;-85
2022/12/19 10:00:09;;;;;;;28.52;18.85;;;6.80;99.90;;;;;;5077846;28;20051;-85
2022/12/19 10:02:41;;;;;;;29.92;19.25;;;6.20;99.90;;;;;;5128921;27;20043;-84
2022/12/19 10:05:12;;;;;;;30.42;19.48;;;6.30;99.90;;;;;;5088596;28;20089;-84
2022/12/19 10:07:38;;;;;;;32.63;20.05;;;6.20;99.90;;;;;;5110518;28;20043;-86
2022/12/19 10:10:04;;;;;;;28.50;18.83;;;6.30;99.90;;;;;;5096862;28;20040;-84
2022/12/19 10:13:08;;;;;;;31.98;20.17;;;6.40;99.90;;;;;;5092725;28;20062;-84
2022/12/19 10:15:50;;;;;;;29.27;18.90;;;6.60;99.90;;;;;;5074149;28;20518;-87
2022/12/19 10:18:34;;;;;;;30.05;19.60;;;6.50;99.90;;;;;;5091665;28;20051;-88
2022/12/19 10:21:10;;;;;;;27.90;18.50;;;6.60;99.90;;;;;;5079680;28;20052;-87
2022/12/19 10:23:56;;;;;;;29.05;18.52;;;6.70;99.90;;;;;;5094491;28;20102;-85
2022/12/19 10:26:41;;;;;;;32.80;19.27;;;6.70;99.90;;;;;;5109329;28;20056;-87
2022/12/19 10:29:29;;;;;;;31.10;19.08;;;6.70;99.90;;;;;;5093512;28;20055;-86
2022/12/19 10:32:23;;;;;;;27.92;18.15;;;6.80;99.90;;;;;;5111593;28;20047;-84
2022/12/19 10:34:51;;;;;;;26.88;16.63;;;6.80;99.90;;;;;;5112635;28;20525;-82
2022/12/19 10:37:19;;;;;;;26.85;17.27;;;6.90;99.90;;;;;;5100704;28;20368;-82
2022/12/19 10:40:04;;;;;;;29.08;18.17;;;8.20;99.90;;;;;;5125464;28;20095;-82
2022/12/19 10:42:41;;;;;;;28.27;17.95;;;7.00;99.90;;;;;;5109762;28;20047;-82
2022/12/19 10:45:20;;;;;;;26.60;18.77;;;7.10;99.90;;;;;;5111271;28;20075;-84
2022/12/19 10:47:55;;;;;;;24.52;17.17;;;7.00;99.90;;;;;;5110225;28;20064;-82
2022/12/19 10:50:24;;;;;;;26.48;18.20;;;7.10;99.90;;;;;;5110371;28;20688;-82
2022/12/19 10:52:56;;;;;;;27.92;19.42;;;8.30;99.90;;;;;;5099740;28;20051;-82
2022/12/19 10:55:39;;;;;;;25.38;16.40;;;7.10;99.90;;;;;;5093529;28;20058;-82
2022/12/19 10:58:24;;;;;;;25.95;17.23;;;7.20;99.90;;;;;;5112838;28;20055;-82
2022/12/19 11:00:53;;;;;;;25.58;16.50;;;7.20;99.90;;;;;;5129663;28;20108;-82
2022/12/19 11:03:18;;;;;;;31.40;19.20;;;7.30;99.90;;;;;;5111556;28;20124;-82
2022/12/19 11:05:53;;;;;;;25.77;17.50;;;7.20;99.90;;;;;;5096698;28;20086;-86
2022/12/19 11:08:28;;;;;;;28.45;18.52;;;7.20;99.90;;;;;;5077323;28;20067;-86
2022/12/19 11:11:14;;;;;;;24.58;17.17;;;7.30;99.90;;;;;;5094573;28;20182;-87
2022/12/19 11:13:46;;;;;;;27.50;16.10;;;8.50;99.90;;;;;;5076704;28;20499;-86
2022/12/19 11:16:13;;;;;;;24.10;17.40;;;7.40;99.90;;;;;;5074043;28;20064;-86
2022/12/19 11:18:46;;;;;;;25.42;17.35;;;7.40;99.90;;;;;;5077269;28;20048;-85
2022/12/19 11:21:12;;;;;;;23.25;16.52;;;7.40;99.90;;;;;;5099596;28;20160;-85
2022/12/19 11:23:50;;;;;;;22.83;16.30;;;7.80;99.90;;;;;;5080068;28;20043;-86
2022/12/19 11:26:34;;;;;;;23.98;16.63;;;7.50;99.90;;;;;;5096413;28;20043;-86
2022/12/19 11:29:15;;;;;;;21.65;16.80;;;7.50;99.90;;;;;;5097834;28;20083;-86
2022/12/19 11:31:41;;;;;;;23.20;16.60;;;7.50;99.90;;;;;;5098575;28;20043;-87
2022/12/19 11:34:17;;;;;;;20.35;14.70;;;7.50;99.90;;;;;;5101715;27;20055;-86
2022/12/19 11:37:03;;;;;;;;;;;7.60;99.90;;;;;;5101639;27;20062;-87
2022/12/19 11:39:43;;;;;;;21.30;14.90;;;7.60;99.90;;;;;;5135606;27;20019;-88
2022/12/19 11:42:28;;;;;;;21.52;14.75;;;7.70;99.90;;;;;;5102941;27;20134;-86
2022/12/19 11:45:16;;;;;;;20.13;13.80;;;7.70;99.90;;;;;;5104839;28;20080;-88
2022/12/19 11:48:04;;;;;;;22.35;14.70;;;7.80;99.90;;;;;;5087224;27;20035;-88
2022/12/19 11:50:34;;;;;;;20.60;13.70;;;7.80;99.90;;;;;;5104242;27;20051;-88
2022/12/19 11:53:22;;;;;;;22.95;14.30;;;7.90;99.90;;;;;;5124663;27;20107;-87
2022/12/19 11:55:53;;;;;;;22.45;15.27;;;8.00;99.90;;;;;;5073596;27;20047;-87
2022/12/19 11:58:21;;;;;;;18.27;12.93;;;8.10;99.90;;;;;;5095676;28;20052;-88
2022/12/19 12:01:08;;;;;;;20.35;14.13;;;8.30;99.90;;;;;;5061886;28;20118;-87
2022/12/19 12:04:07;;;;;;;17.27;13.00;;;8.10;99.90;;;;;;5095021;28;20044;-87
2022/12/19 12:06:40;;;;;;;19.15;13.07;;;8.10;99.90;;;;;;5063138;27;20059;-87
2022/12/19 12:09:23;;;;;;;18.25;13.48;;;8.10;99.90;;;;;;5096096;28;20059;-88
2022/12/19 12:12:14;;;;;;;19.30;13.27;;;8.20;99.90;;;;;;5078356;28;20052;-88
2022/12/19 12:14:40;;;;;;;20.65;13.68;;;8.20;99.90;;;;;;5078165;28;20101;-87
2022/12/19 12:17:43;;;;;;;15.63;12.07;;;8.20;99.90;;;;;;5083313;28;20043;-86
2022/12/19 12:20:13;;;;;;;20.35;13.25;;;8.30;99.90;;;;;;5086672;28;20065;-87
2022/12/19 12:23:00;;;;;;;18.65;12.18;;;8.30;99.90;;;;;;5096877;28;20158;-86
2022/12/19 12:25:55;;;;;;;18.77;12.88;;;8.40;99.90;;;;;;5096773;28;20185;-85
2022/12/19 12:28:40;;;;;;;17.50;12.40;;;8.40;99.90;;;;;;5060340;28;20143;-85
2022/12/19 12:31:42;;;;;;;14.70;11.88;;;8.40;99.90;;;;;;5093723;28;20051;-84
2022/12/19 12:34:27;;;;;;;17.45;12.48;;;8.50;99.90;;;;;;5089939;28;20060;-85
2022/12/19 12:37:37;;;;;;;14.00;9.43;;;8.50;99.90;;;;;;5079439;28;20372;-87
2022/12/19 12:40:42;;;;;;;16.27;12.43;;;8.60;99.90;;;;;;5090930;28;20124;-84
2022/12/19 12:43:55;;;;;;;16.30;11.20;;;8.50;99.90;;;;;;5105195;27;20152;-85
2022/12/19 12:46:33;;;;;;;18.58;13.18;;;8.50;99.90;;;;;;5050931;28;20146;-83
2022/12/19 12:49:02;;;;;;;20.08;13.85;;;8.90;99.90;;;;;;5074893;28;20048;-84
2022/12/19 12:51:31;;;;;;;18.23;13.43;;;8.50;99.90;;;;;;5056711;28;20048;-85
2022/12/19 12:54:13;;;;;;;19.25;13.48;;;8.50;99.90;;;;;;5077159;28;20044;-86
2022/12/19 12:56:40;;;;;;;17.65;11.85;;;8.50;99.90;;;;;;5093886;28;20079;-84
2022/12/19 12:59:27;;;;;;;21.17;13.15;;;8.50;99.90;;;;;;5076804;27;20052;-84
2022/12/19 13:02:12;;;;;;;17.25;12.15;;;8.50;99.90;;;;;;5090762;28;20471;-84
2022/12/19 13:04:53;;;;;;;15.13;11.32;;;9.10;99.90;;;;;;5087711;28;20102;-84
2022/12/19 13:07:25;;;;;;;17.35;12.45;;;8.50;99.90;;;;;;5088692;27;20044;-84
2022/12/19 13:10:13;;;;;;;17.50;11.77;;;8.60;99.90;;;;;;5087830;28;20043;-86
2022/12/19 13:13:00;;;;;;;15.82;12.20;;;8.60;99.90;;;;;;5096971;28;20123;-86
2022/12/19 13:15:30;;;;;;;18.45;11.27;;;8.60;99.90;;;;;;5074568;28;20056;-84
2022/12/19 13:17:56;;;;;;;16.85;11.82;;;8.60;99.90;;;;;;5063702;28;20048;-84
2022/12/19 13:20:28;;;;;;;14.30;10.90;;;8.60;99.90;;;;;;5091627;28;20067;-84
2022/12/19 13:22:57;;;;;;;13.93;10.25;;;8.70;99.90;;;;;;5109481;28;20052;-85
2022/12/19 13:25:25;;;;;;;15.43;11.45;;;8.70;99.90;;;;;;5113338;27;20147;-84
2022/12/19 13:28:21;;;;;;;15.20;11.05;;;8.70;99.90;;;;;;5133021;27;20517;-86
2022/12/19 13:31:05;;;;;;;17.98;11.70;;;8.70;99.90;;;;;;5114048;27;20055;-85
2022/12/19 13:33:53;;;;;;;14.68;10.88;;;9.60;99.90;;;;;;5072119;27;20048;-85
2022/12/19 13:36:48;;;;;;;14.40;10.55;;;8.70;99.90;;;;;;5111939;28;20059;-85